sensor_id;sensor_type;location;lat;lon;timestamp;P1;durP1;ratioP1;P2;durP2;ratioP2
6223;SDS011;3145;42.726;23.342;2023-06-26T00:00:32;29.07;;;21.17;;
6223;SDS011;3145;42.726;23.342;2023-06-26T00:02:58;32.93;;;21.80;;
6223;SDS011;3145;42.726;23.342;2023-06-26T00:05:25;27.30;;;20.80;;
6223;SDS011;3145;42.726;23.342;2023-06-26T00:07:53;29.87;;;21.30;;
6223;SDS011;3145;42.726;23.342;2023-06-26T00:10:19;28.57;;;22.40;;
6223;SDS011;3145;42.726;23.342;2023-06-26T00:12:46;32.50;;;21.90;;
6223;SDS011;3145;42.726;23.342;2023-06-26T00:15:14;25.50;;;20.00;;
6223;SDS011;3145;42.726;23.342;2023-06-26T00:17:41;24.77;;;20.73;;
6223;SDS011;3145;42.726;23.342;2023-06-26T00:20:08;26.20;;;21.00;;
6223;SDS011;3145;42.726;23.342;2023-06-26T00:22:35;28.37;;;20.90;;
6223;SDS011;3145;42.726;23.342;2023-06-26T00:25:06;30.93;;;22.20;;
6223;SDS011;3145;42.726;23.342;2023-06-26T00:27:32;27.73;;;23.10;;
6223;SDS011;3145;42.726;23.342;2023-06-26T00:29:59;28.83;;;23.63;;
6223;SDS011;3145;42.726;23.342;2023-06-26T00:32:27;29.23;;;23.03;;
6223;SDS011;3145;42.726;23.342;2023-06-26T00:34:54;29.57;;;23.90;;
6223;SDS011;3145;42.726;23.342;2023-06-26T00:54:09;30.50;;;20.43;;
6223;SDS011;3145;42.726;23.342;2023-06-26T00:56:36;26.53;;;20.73;;
6223;SDS011;3145;42.726;23.342;2023-06-26T00:59:03;22.73;;;18.07;;
6223;SDS011;3145;42.726;23.342;2023-06-26T01:01:30;21.77;;;16.97;;
6223;SDS011;3145;42.726;23.342;2023-06-26T01:03:56;21.93;;;17.67;;
6223;SDS011;3145;42.726;23.342;2023-06-26T01:06:23;18.83;;;16.90;;
6223;SDS011;3145;42.726;23.342;2023-06-26T01:08:52;22.13;;;16.97;;
6223;SDS011;3145;42.726;23.342;2023-06-26T01:11:21;19.20;;;17.13;;
6223;SDS011;3145;42.726;23.342;2023-06-26T01:13:48;20.60;;;15.90;;
6223;SDS011;3145;42.726;23.342;2023-06-26T01:16:15;19.23;;;15.77;;
6223;SDS011;3145;42.726;23.342;2023-06-26T01:18:45;18.10;;;15.37;;
6223;SDS011;3145;42.726;23.342;2023-06-26T01:21:13;17.63;;;15.73;;
6223;SDS011;3145;42.726;23.342;2023-06-26T01:23:44;17.77;;;15.80;;
6223;SDS011;3145;42.726;23.342;2023-06-26T01:26:26;18.50;;;15.77;;
6223;SDS011;3145;42.726;23.342;2023-06-26T01:28:55;19.20;;;14.67;;
6223;SDS011;3145;42.726;23.342;2023-06-26T01:31:26;21.80;;;16.20;;
6223;SDS011;3145;42.726;23.342;2023-06-26T01:33:55;18.60;;;16.53;;
6223;SDS011;3145;42.726;23.342;2023-06-26T01:36:23;17.37;;;15.67;;
6223;SDS011;3145;42.726;23.342;2023-06-26T01:38:50;18.20;;;16.40;;
6223;SDS011;3145;42.726;23.342;2023-06-26T01:41:17;19.23;;;16.07;;
6223;SDS011;3145;42.726;23.342;2023-06-26T01:43:51;18.70;;;16.80;;
6223;SDS011;3145;42.726;23.342;2023-06-26T01:46:32;17.33;;;15.23;;
6223;SDS011;3145;42.726;23.342;2023-06-26T01:49:05;17.83;;;16.13;;
6223;SDS011;3145;42.726;23.342;2023-06-26T01:51:38;18.37;;;16.37;;
6223;SDS011;3145;42.726;23.342;2023-06-26T01:54:08;18.80;;;15.80;;
6223;SDS011;3145;42.726;23.342;2023-06-26T01:56:39;17.90;;;16.03;;
6223;SDS011;3145;42.726;23.342;2023-06-26T01:59:10;17.33;;;15.53;;
6223;SDS011;3145;42.726;23.342;2023-06-26T02:01:39;17.63;;;15.87;;
6223;SDS011;3145;42.726;23.342;2023-06-26T02:04:06;18.70;;;16.80;;
6223;SDS011;3145;42.726;23.342;2023-06-26T02:06:33;17.27;;;15.13;;
6223;SDS011;3145;42.726;23.342;2023-06-26T02:08:59;19.27;;;16.67;;
6223;SDS011;3145;42.726;23.342;2023-06-26T02:11:26;18.30;;;16.40;;
6223;SDS011;3145;42.726;23.342;2023-06-26T02:13:53;24.20;;;16.23;;
6223;SDS011;3145;42.726;23.342;2023-06-26T02:16:21;18.70;;;16.03;;
6223;SDS011;3145;42.726;23.342;2023-06-26T02:18:48;20.70;;;17.20;;
6223;SDS011;3145;42.726;23.342;2023-06-26T02:21:15;20.20;;;17.50;;
6223;SDS011;3145;42.726;23.342;2023-06-26T02:23:42;19.60;;;16.50;;
6223;SDS011;3145;42.726;23.342;2023-06-26T02:26:08;19.20;;;17.30;;
6223;SDS011;3145;42.726;23.342;2023-06-26T02:28:36;20.87;;;17.87;;
6223;SDS011;3145;42.726;23.342;2023-06-26T02:31:02;19.13;;;16.67;;
6223;SDS011;3145;42.726;23.342;2023-06-26T02:33:31;23.50;;;17.83;;
6223;SDS011;3145;42.726;23.342;2023-06-26T02:35:58;19.50;;;17.60;;
6223;SDS011;3145;42.726;23.342;2023-06-26T02:38:25;18.93;;;17.00;;
6223;SDS011;3145;42.726;23.342;2023-06-26T02:40:51;20.87;;;17.50;;
6223;SDS011;3145;42.726;23.342;2023-06-26T02:43:18;19.30;;;17.20;;
6223;SDS011;3145;42.726;23.342;2023-06-26T02:45:45;21.90;;;18.57;;
6223;SDS011;3145;42.726;23.342;2023-06-26T02:48:12;23.20;;;18.73;;
6223;SDS011;3145;42.726;23.342;2023-06-26T02:50:40;21.33;;;19.13;;
6223;SDS011;3145;42.726;23.342;2023-06-26T02:53:06;21.00;;;18.60;;
6223;SDS011;3145;42.726;23.342;2023-06-26T02:55:34;31.37;;;20.00;;
6223;SDS011;3145;42.726;23.342;2023-06-26T02:58:00;21.83;;;19.53;;
6223;SDS011;3145;42.726;23.342;2023-06-26T03:00:27;23.63;;;20.50;;
6223;SDS011;3145;42.726;23.342;2023-06-26T03:02:54;25.77;;;20.60;;
6223;SDS011;3145;42.726;23.342;2023-06-26T03:05:22;21.83;;;19.40;;
6223;SDS011;3145;42.726;23.342;2023-06-26T03:07:50;29.47;;;21.73;;
6223;SDS011;3145;42.726;23.342;2023-06-26T03:10:17;24.87;;;21.90;;
6223;SDS011;3145;42.726;23.342;2023-06-26T03:12:44;24.47;;;21.07;;
6223;SDS011;3145;42.726;23.342;2023-06-26T03:15:10;25.00;;;21.27;;
6223;SDS011;3145;42.726;23.342;2023-06-26T03:17:37;30.00;;;21.77;;
6223;SDS011;3145;42.726;23.342;2023-06-26T03:20:04;24.83;;;21.93;;
6223;SDS011;3145;42.726;23.342;2023-06-26T03:22:32;28.30;;;24.27;;
6223;SDS011;3145;42.726;23.342;2023-06-26T03:25:01;29.60;;;24.83;;
6223;SDS011;3145;42.726;23.342;2023-06-26T03:27:28;28.33;;;23.77;;
6223;SDS011;3145;42.726;23.342;2023-06-26T03:29:55;27.97;;;23.20;;
6223;SDS011;3145;42.726;23.342;2023-06-26T03:32:22;29.53;;;24.17;;
6223;SDS011;3145;42.726;23.342;2023-06-26T03:34:48;26.03;;;22.20;;
6223;SDS011;3145;42.726;23.342;2023-06-26T03:37:15;25.97;;;23.27;;
6223;SDS011;3145;42.726;23.342;2023-06-26T03:39:41;30.63;;;23.87;;
6223;SDS011;3145;42.726;23.342;2023-06-26T03:42:10;27.90;;;23.27;;
6223;SDS011;3145;42.726;23.342;2023-06-26T03:44:36;31.13;;;24.27;;
6223;SDS011;3145;42.726;23.342;2023-06-26T03:47:03;28.17;;;23.13;;
6223;SDS011;3145;42.726;23.342;2023-06-26T03:49:30;25.83;;;23.07;;
6223;SDS011;3145;42.726;23.342;2023-06-26T03:51:57;30.53;;;23.23;;
6223;SDS011;3145;42.726;23.342;2023-06-26T03:54:23;26.57;;;23.57;;
6223;SDS011;3145;42.726;23.342;2023-06-26T03:56:51;40.30;;;25.97;;
6223;SDS011;3145;42.726;23.342;2023-06-26T03:59:19;33.23;;;24.90;;
6223;SDS011;3145;42.726;23.342;2023-06-26T04:01:45;29.73;;;24.27;;
6223;SDS011;3145;42.726;23.342;2023-06-26T04:04:12;29.70;;;23.57;;
6223;SDS011;3145;42.726;23.342;2023-06-26T04:06:39;32.90;;;22.70;;
6223;SDS011;3145;42.726;23.342;2023-06-26T04:09:05;25.50;;;22.70;;
6223;SDS011;3145;42.726;23.342;2023-06-26T04:11:32;30.47;;;23.30;;
6223;SDS011;3145;42.726;23.342;2023-06-26T04:13:59;28.37;;;23.00;;
6223;SDS011;3145;42.726;23.342;2023-06-26T04:16:27;25.83;;;21.83;;
6223;SDS011;3145;42.726;23.342;2023-06-26T04:18:55;29.17;;;22.63;;
6223;SDS011;3145;42.726;23.342;2023-06-26T04:21:23;25.37;;;21.63;;
6223;SDS011;3145;42.726;23.342;2023-06-26T04:23:50;24.37;;;21.80;;
6223;SDS011;3145;42.726;23.342;2023-06-26T04:26:17;27.03;;;21.80;;
6223;SDS011;3145;42.726;23.342;2023-06-26T04:28:44;22.80;;;20.50;;
6223;SDS011;3145;42.726;23.342;2023-06-26T04:31:11;24.93;;;22.20;;
6223;SDS011;3145;42.726;23.342;2023-06-26T04:33:39;24.33;;;21.50;;
6223;SDS011;3145;42.726;23.342;2023-06-26T04:36:06;33.63;;;23.07;;
6223;SDS011;3145;42.726;23.342;2023-06-26T04:38:33;27.73;;;21.73;;
6223;SDS011;3145;42.726;23.342;2023-06-26T04:41:00;28.33;;;21.77;;
6223;SDS011;3145;42.726;23.342;2023-06-26T04:43:27;29.87;;;23.30;;
6223;SDS011;3145;42.726;23.342;2023-06-26T04:45:53;26.10;;;21.77;;
6223;SDS011;3145;42.726;23.342;2023-06-26T04:48:20;24.47;;;21.93;;
6223;SDS011;3145;42.726;23.342;2023-06-26T04:50:48;26.23;;;21.73;;
6223;SDS011;3145;42.726;23.342;2023-06-26T04:53:19;25.33;;;21.20;;
6223;SDS011;3145;42.726;23.342;2023-06-26T04:55:47;29.43;;;22.03;;
6223;SDS011;3145;42.726;23.342;2023-06-26T04:58:13;26.90;;;21.90;;
6223;SDS011;3145;42.726;23.342;2023-06-26T05:00:40;30.33;;;23.07;;
6223;SDS011;3145;42.726;23.342;2023-06-26T05:03:08;23.43;;;21.07;;
6223;SDS011;3145;42.726;23.342;2023-06-26T05:05:35;28.83;;;25.20;;
6223;SDS011;3145;42.726;23.342;2023-06-26T05:08:14;24.15;;;21.38;;
6223;SDS011;3145;42.726;23.342;2023-06-26T05:10:41;30.23;;;25.38;;
6223;SDS011;3145;42.726;23.342;2023-06-26T05:13:08;24.80;;;22.17;;
6223;SDS011;3145;42.726;23.342;2023-06-26T05:15:35;23.67;;;21.17;;
6223;SDS011;3145;42.726;23.342;2023-06-26T05:18:02;27.20;;;21.30;;
6223;SDS011;3145;42.726;23.342;2023-06-26T05:20:29;22.23;;;19.87;;
6223;SDS011;3145;42.726;23.342;2023-06-26T05:22:55;24.27;;;20.07;;
6223;SDS011;3145;42.726;23.342;2023-06-26T05:25:24;25.77;;;21.33;;
6223;SDS011;3145;42.726;23.342;2023-06-26T05:27:54;21.00;;;18.80;;
6223;SDS011;3145;42.726;23.342;2023-06-26T05:30:21;20.20;;;17.83;;
6223;SDS011;3145;42.726;23.342;2023-06-26T05:32:50;20.40;;;18.23;;
6223;SDS011;3145;42.726;23.342;2023-06-26T05:35:17;21.77;;;18.80;;
6223;SDS011;3145;42.726;23.342;2023-06-26T05:37:46;19.70;;;17.53;;
6223;SDS011;3145;42.726;23.342;2023-06-26T05:40:17;19.90;;;17.73;;
6223;SDS011;3145;42.726;23.342;2023-06-26T05:42:46;19.53;;;17.00;;
6223;SDS011;3145;42.726;23.342;2023-06-26T05:45:14;20.33;;;18.13;;
6223;SDS011;3145;42.726;23.342;2023-06-26T05:47:41;21.30;;;17.47;;
6223;SDS011;3145;42.726;23.342;2023-06-26T05:50:08;19.80;;;17.77;;
6223;SDS011;3145;42.726;23.342;2023-06-26T05:52:36;24.43;;;20.27;;
6223;SDS011;3145;42.726;23.342;2023-06-26T05:55:04;22.53;;;20.13;;
6223;SDS011;3145;42.726;23.342;2023-06-26T05:57:31;22.05;;;18.33;;
6223;SDS011;3145;42.726;23.342;2023-06-26T06:00:01;23.98;;;18.17;;
6223;SDS011;3145;42.726;23.342;2023-06-26T06:02:30;20.58;;;18.38;;
6223;SDS011;3145;42.726;23.342;2023-06-26T06:04:57;21.48;;;17.25;;
6223;SDS011;3145;42.726;23.342;2023-06-26T06:07:24;19.40;;;17.02;;
6223;SDS011;3145;42.726;23.342;2023-06-26T06:09:51;18.52;;;16.63;;
6223;SDS011;3145;42.726;23.342;2023-06-26T06:12:17;17.25;;;15.65;;
6223;SDS011;3145;42.726;23.342;2023-06-26T06:14:44;17.42;;;15.68;;
6223;SDS011;3145;42.726;23.342;2023-06-26T06:17:12;17.85;;;16.25;;
6223;SDS011;3145;42.726;23.342;2023-06-26T06:19:39;17.70;;;16.00;;
6223;SDS011;3145;42.726;23.342;2023-06-26T06:22:06;19.20;;;15.35;;
6223;SDS011;3145;42.726;23.342;2023-06-26T06:24:32;17.90;;;16.17;;
6223;SDS011;3145;42.726;23.342;2023-06-26T06:26:59;18.40;;;16.35;;
6223;SDS011;3145;42.726;23.342;2023-06-26T06:29:26;18.08;;;16.27;;
6223;SDS011;3145;42.726;23.342;2023-06-26T06:31:52;20.30;;;16.08;;
6223;SDS011;3145;42.726;23.342;2023-06-26T06:34:20;17.33;;;14.77;;
6223;SDS011;3145;42.726;23.342;2023-06-26T06:36:47;16.08;;;14.30;;
6223;SDS011;3145;42.726;23.342;2023-06-26T06:39:15;14.93;;;13.48;;
6223;SDS011;3145;42.726;23.342;2023-06-26T06:41:41;13.55;;;12.25;;
6223;SDS011;3145;42.726;23.342;2023-06-26T06:44:08;14.45;;;12.77;;
6223;SDS011;3145;42.726;23.342;2023-06-26T06:46:35;15.52;;;13.77;;
6223;SDS011;3145;42.726;23.342;2023-06-26T06:49:02;15.18;;;13.55;;
6223;SDS011;3145;42.726;23.342;2023-06-26T06:51:30;17.80;;;12.52;;
6223;SDS011;3145;42.726;23.342;2023-06-26T06:53:57;13.48;;;12.00;;
6223;SDS011;3145;42.726;23.342;2023-06-26T06:56:24;14.50;;;13.02;;
6223;SDS011;3145;42.726;23.342;2023-06-26T06:58:50;12.38;;;11.38;;
6223;SDS011;3145;42.726;23.342;2023-06-26T07:01:17;14.82;;;12.55;;
6223;SDS011;3145;42.726;23.342;2023-06-26T07:03:44;13.88;;;12.60;;
6223;SDS011;3145;42.726;23.342;2023-06-26T07:06:10;12.55;;;11.50;;
6223;SDS011;3145;42.726;23.342;2023-06-26T07:08:38;15.60;;;13.65;;
6223;SDS011;3145;42.726;23.342;2023-06-26T07:11:05;14.00;;;12.70;;
6223;SDS011;3145;42.726;23.342;2023-06-26T07:13:32;15.13;;;13.50;;
6223;SDS011;3145;42.726;23.342;2023-06-26T07:15:58;14.48;;;12.65;;
6223;SDS011;3145;42.726;23.342;2023-06-26T07:18:25;12.90;;;11.13;;
6223;SDS011;3145;42.726;23.342;2023-06-26T07:20:52;12.63;;;11.48;;
6223;SDS011;3145;42.726;23.342;2023-06-26T07:23:19;12.18;;;10.68;;
6223;SDS011;3145;42.726;23.342;2023-06-26T07:25:47;10.70;;;9.90;;
6223;SDS011;3145;42.726;23.342;2023-06-26T07:28:13;9.63;;;8.93;;
6223;SDS011;3145;42.726;23.342;2023-06-26T07:30:40;10.77;;;9.80;;
6223;SDS011;3145;42.726;23.342;2023-06-26T07:33:07;11.00;;;9.35;;
6223;SDS011;3145;42.726;23.342;2023-06-26T07:35:33;9.18;;;8.30;;
6223;SDS011;3145;42.726;23.342;2023-06-26T07:38:00;9.43;;;8.57;;
6223;SDS011;3145;42.726;23.342;2023-06-26T07:40:27;10.15;;;9.23;;
6223;SDS011;3145;42.726;23.342;2023-06-26T07:42:55;10.77;;;8.25;;
6223;SDS011;3145;42.726;23.342;2023-06-26T07:45:23;8.63;;;7.85;;
6223;SDS011;3145;42.726;23.342;2023-06-26T07:47:50;8.32;;;7.63;;
6223;SDS011;3145;42.726;23.342;2023-06-26T07:50:16;10.02;;;9.13;;
6223;SDS011;3145;42.726;23.342;2023-06-26T07:52:46;8.50;;;7.82;;
6223;SDS011;3145;42.726;23.342;2023-06-26T07:55:13;6.95;;;6.30;;
6223;SDS011;3145;42.726;23.342;2023-06-26T07:57:40;7.70;;;7.00;;
6223;SDS011;3145;42.726;23.342;2023-06-26T08:00:08;6.68;;;6.22;;
6223;SDS011;3145;42.726;23.342;2023-06-26T08:02:37;8.63;;;7.43;;
6223;SDS011;3145;42.726;23.342;2023-06-26T08:05:03;8.05;;;7.45;;
6223;SDS011;3145;42.726;23.342;2023-06-26T08:07:31;7.97;;;7.18;;
6223;SDS011;3145;42.726;23.342;2023-06-26T08:09:57;8.07;;;7.20;;
6223;SDS011;3145;42.726;23.342;2023-06-26T08:12:24;7.10;;;6.40;;
6223;SDS011;3145;42.726;23.342;2023-06-26T08:14:51;7.70;;;6.90;;
6223;SDS011;3145;42.726;23.342;2023-06-26T08:17:19;7.18;;;5.70;;
6223;SDS011;3145;42.726;23.342;2023-06-26T08:19:45;7.18;;;5.70;;
6223;SDS011;3145;42.726;23.342;2023-06-26T08:22:12;7.68;;;6.35;;
6223;SDS011;3145;42.726;23.342;2023-06-26T08:24:39;8.20;;;6.25;;
6223;SDS011;3145;42.726;23.342;2023-06-26T08:27:06;8.32;;;6.32;;
6223;SDS011;3145;42.726;23.342;2023-06-26T08:29:33;7.93;;;7.20;;
6223;SDS011;3145;42.726;23.342;2023-06-26T08:32:00;7.38;;;6.68;;
6223;SDS011;3145;42.726;23.342;2023-06-26T08:34:28;7.50;;;6.20;;
6223;SDS011;3145;42.726;23.342;2023-06-26T08:36:55;6.82;;;6.25;;
6223;SDS011;3145;42.726;23.342;2023-06-26T08:39:22;7.38;;;6.78;;
6223;SDS011;3145;42.726;23.342;2023-06-26T08:41:48;6.60;;;6.20;;
6223;SDS011;3145;42.726;23.342;2023-06-26T08:44:15;7.55;;;6.95;;
6223;SDS011;3145;42.726;23.342;2023-06-26T08:46:42;9.18;;;8.27;;
6223;SDS011;3145;42.726;23.342;2023-06-26T08:49:12;7.85;;;7.15;;
6223;SDS011;3145;42.726;23.342;2023-06-26T08:51:50;6.95;;;6.45;;
6223;SDS011;3145;42.726;23.342;2023-06-26T08:54:19;7.00;;;6.50;;
6223;SDS011;3145;42.726;23.342;2023-06-26T08:56:53;11.73;;;7.13;;
6223;SDS011;3145;42.726;23.342;2023-06-26T08:59:22;7.40;;;6.90;;
6223;SDS011;3145;42.726;23.342;2023-06-26T09:01:49;7.75;;;7.15;;
6223;SDS011;3145;42.726;23.342;2023-06-26T09:04:16;6.72;;;6.32;;
6223;SDS011;3145;42.726;23.342;2023-06-26T09:06:43;7.93;;;6.65;;
6223;SDS011;3145;42.726;23.342;2023-06-26T09:09:12;6.85;;;6.22;;
6223;SDS011;3145;42.726;23.342;2023-06-26T09:11:38;6.20;;;5.78;;
6223;SDS011;3145;42.726;23.342;2023-06-26T09:14:05;6.60;;;6.03;;
6223;SDS011;3145;42.726;23.342;2023-06-26T09:16:38;6.50;;;6.00;;
6223;SDS011;3145;42.726;23.342;2023-06-26T09:19:08;6.70;;;6.18;;
6223;SDS011;3145;42.726;23.342;2023-06-26T09:21:36;6.18;;;5.57;;
6223;SDS011;3145;42.726;23.342;2023-06-26T09:24:04;5.78;;;5.22;;
6223;SDS011;3145;42.726;23.342;2023-06-26T09:26:34;6.75;;;6.25;;
6223;SDS011;3145;42.726;23.342;2023-06-26T09:29:02;6.70;;;6.20;;
6223;SDS011;3145;42.726;23.342;2023-06-26T09:31:29;6.18;;;5.63;;
6223;SDS011;3145;42.726;23.342;2023-06-26T09:33:58;6.28;;;5.57;;
6223;SDS011;3145;42.726;23.342;2023-06-26T09:36:27;6.10;;;5.60;;
6223;SDS011;3145;42.726;23.342;2023-06-26T09:38:58;8.77;;;6.15;;
6223;SDS011;3145;42.726;23.342;2023-06-26T09:41:25;6.07;;;5.60;;
6223;SDS011;3145;42.726;23.342;2023-06-26T09:43:53;6.30;;;5.70;;
6223;SDS011;3145;42.726;23.342;2023-06-26T09:46:26;6.82;;;6.13;;
6223;SDS011;3145;42.726;23.342;2023-06-26T09:48:57;6.57;;;5.97;;
6223;SDS011;3145;42.726;23.342;2023-06-26T09:51:25;6.10;;;5.57;;
6223;SDS011;3145;42.726;23.342;2023-06-26T09:53:52;6.35;;;5.85;;
6223;SDS011;3145;42.726;23.342;2023-06-26T09:56:18;12.70;;;7.40;;
6223;SDS011;3145;42.726;23.342;2023-06-26T09:58:46;6.20;;;5.75;;
6223;SDS011;3145;42.726;23.342;2023-06-26T10:01:15;8.68;;;5.47;;
6223;SDS011;3145;42.726;23.342;2023-06-26T10:03:41;7.07;;;5.60;;
6223;SDS011;3145;42.726;23.342;2023-06-26T10:06:09;6.60;;;6.07;;
6223;SDS011;3145;42.726;23.342;2023-06-26T10:08:38;9.43;;;5.60;;
6223;SDS011;3145;42.726;23.342;2023-06-26T10:11:06;5.68;;;5.18;;
6223;SDS011;3145;42.726;23.342;2023-06-26T10:13:38;5.07;;;4.68;;
6223;SDS011;3145;42.726;23.342;2023-06-26T10:16:10;7.05;;;5.13;;
6223;SDS011;3145;42.726;23.342;2023-06-26T10:18:39;5.43;;;4.93;;
6223;SDS011;3145;42.726;23.342;2023-06-26T10:21:06;5.13;;;4.78;;
6223;SDS011;3145;42.726;23.342;2023-06-26T10:23:36;6.95;;;6.28;;
6223;SDS011;3145;42.726;23.342;2023-06-26T10:26:05;9.93;;;7.03;;
6223;SDS011;3145;42.726;23.342;2023-06-26T10:28:33;5.93;;;5.32;;
6223;SDS011;3145;42.726;23.342;2023-06-26T10:31:02;6.53;;;5.93;;
6223;SDS011;3145;42.726;23.342;2023-06-26T10:33:32;8.23;;;5.53;;
6223;SDS011;3145;42.726;23.342;2023-06-26T10:36:14;8.68;;;5.78;;
6223;SDS011;3145;42.726;23.342;2023-06-26T10:38:49;6.53;;;5.93;;
6223;SDS011;3145;42.726;23.342;2023-06-26T10:41:19;6.43;;;5.90;;
6223;SDS011;3145;42.726;23.342;2023-06-26T10:43:51;8.32;;;6.07;;
6223;SDS011;3145;42.726;23.342;2023-06-26T10:46:33;6.85;;;6.13;;
6223;SDS011;3145;42.726;23.342;2023-06-26T10:49:00;6.68;;;6.07;;
6223;SDS011;3145;42.726;23.342;2023-06-26T10:51:29;6.95;;;6.25;;
6223;SDS011;3145;42.726;23.342;2023-06-26T10:53:57;6.82;;;6.25;;
6223;SDS011;3145;42.726;23.342;2023-06-26T10:56:43;5.93;;;5.43;;
6223;SDS011;3145;42.726;23.342;2023-06-26T10:59:11;5.82;;;5.30;;
6223;SDS011;3145;42.726;23.342;2023-06-26T11:01:41;5.72;;;5.32;;
6223;SDS011;3145;42.726;23.342;2023-06-26T11:04:08;6.78;;;6.05;;
6223;SDS011;3145;42.726;23.342;2023-06-26T11:06:37;6.20;;;5.55;;
6223;SDS011;3145;42.726;23.342;2023-06-26T11:09:08;6.50;;;6.00;;
6223;SDS011;3145;42.726;23.342;2023-06-26T11:14:33;8.35;;;6.07;;
6223;SDS011;3145;42.726;23.342;2023-06-26T11:17:02;6.40;;;5.90;;
6223;SDS011;3145;42.726;23.342;2023-06-26T11:19:29;8.48;;;6.70;;
6223;SDS011;3145;42.726;23.342;2023-06-26T11:22:03;6.53;;;5.80;;
6223;SDS011;3145;42.726;23.342;2023-06-26T11:24:30;6.95;;;6.25;;
6223;SDS011;3145;42.726;23.342;2023-06-26T11:27:00;6.72;;;6.13;;
6223;SDS011;3145;42.726;23.342;2023-06-26T11:29:29;7.68;;;6.95;;
6223;SDS011;3145;42.726;23.342;2023-06-26T11:32:00;8.77;;;7.07;;
6223;SDS011;3145;42.726;23.342;2023-06-26T11:34:30;6.80;;;6.28;;
6223;SDS011;3145;42.726;23.342;2023-06-26T11:36:58;6.78;;;6.25;;
6223;SDS011;3145;42.726;23.342;2023-06-26T11:39:28;7.97;;;5.70;;
6223;SDS011;3145;42.726;23.342;2023-06-26T11:41:55;5.80;;;5.40;;
6223;SDS011;3145;42.726;23.342;2023-06-26T11:44:22;6.13;;;5.70;;
6223;SDS011;3145;42.726;23.342;2023-06-26T11:46:52;6.68;;;5.38;;
6223;SDS011;3145;42.726;23.342;2023-06-26T11:49:20;8.88;;;6.22;;
6223;SDS011;3145;42.726;23.342;2023-06-26T11:51:50;7.80;;;5.80;;
6223;SDS011;3145;42.726;23.342;2023-06-26T11:54:23;5.95;;;5.43;;
6223;SDS011;3145;42.726;23.342;2023-06-26T11:56:55;7.95;;;5.68;;
6223;SDS011;3145;42.726;23.342;2023-06-26T11:59:23;7.15;;;6.65;;
6223;SDS011;3145;42.726;23.342;2023-06-26T12:01:51;7.38;;;6.68;;
6223;SDS011;3145;42.726;23.342;2023-06-26T12:04:18;7.78;;;7.13;;
6223;SDS011;3145;42.726;23.342;2023-06-26T12:06:47;9.98;;;7.65;;
6223;SDS011;3145;42.726;23.342;2023-06-26T12:09:15;11.95;;;7.35;;
6223;SDS011;3145;42.726;23.342;2023-06-26T12:11:44;6.45;;;5.80;;
6223;SDS011;3145;42.726;23.342;2023-06-26T12:14:15;6.60;;;5.97;;
6223;SDS011;3145;42.726;23.342;2023-06-26T12:16:44;7.88;;;5.90;;
6223;SDS011;3145;42.726;23.342;2023-06-26T12:19:10;6.20;;;5.70;;
6223;SDS011;3145;42.726;23.342;2023-06-26T12:21:44;6.35;;;5.75;;
6223;SDS011;3145;42.726;23.342;2023-06-26T12:24:16;6.82;;;6.07;;
6223;SDS011;3145;42.726;23.342;2023-06-26T12:26:44;6.10;;;5.65;;
6223;SDS011;3145;42.726;23.342;2023-06-26T12:29:12;7.47;;;6.57;;
6223;SDS011;3145;42.726;23.342;2023-06-26T12:31:43;6.18;;;5.57;;
6223;SDS011;3145;42.726;23.342;2023-06-26T12:34:12;7.07;;;6.47;;
6223;SDS011;3145;42.726;23.342;2023-06-26T12:36:43;6.80;;;5.90;;
6223;SDS011;3145;42.726;23.342;2023-06-26T12:39:11;6.72;;;5.75;;
6223;SDS011;3145;42.726;23.342;2023-06-26T12:41:45;6.63;;;6.05;;
6223;SDS011;3145;42.726;23.342;2023-06-26T12:44:25;6.90;;;6.30;;
6223;SDS011;3145;42.726;23.342;2023-06-26T12:46:53;7.03;;;6.47;;
6223;SDS011;3145;42.726;23.342;2023-06-26T12:49:28;6.80;;;6.18;;
6223;SDS011;3145;42.726;23.342;2023-06-26T12:51:56;7.20;;;6.57;;
6223;SDS011;3145;42.726;23.342;2023-06-26T12:54:23;6.35;;;5.75;;
6223;SDS011;3145;42.726;23.342;2023-06-26T12:56:50;7.05;;;6.45;;
6223;SDS011;3145;42.726;23.342;2023-06-26T12:59:16;6.07;;;5.60;;
6223;SDS011;3145;42.726;23.342;2023-06-26T13:01:44;6.68;;;5.95;;
6223;SDS011;3145;42.726;23.342;2023-06-26T13:04:11;6.82;;;4.82;;
6223;SDS011;3145;42.726;23.342;2023-06-26T13:06:38;5.75;;;5.35;;
6223;SDS011;3145;42.726;23.342;2023-06-26T13:09:05;6.15;;;5.55;;
6223;SDS011;3145;42.726;23.342;2023-06-26T13:11:32;9.45;;;5.82;;
6223;SDS011;3145;42.726;23.342;2023-06-26T13:13:58;6.00;;;5.55;;
6223;SDS011;3145;42.726;23.342;2023-06-26T13:16:25;6.28;;;5.55;;
6223;SDS011;3145;42.726;23.342;2023-06-26T13:18:53;6.30;;;5.60;;
6223;SDS011;3145;42.726;23.342;2023-06-26T13:21:20;6.38;;;5.88;;
6223;SDS011;3145;42.726;23.342;2023-06-26T13:23:47;8.65;;;5.50;;
6223;SDS011;3145;42.726;23.342;2023-06-26T13:26:14;5.38;;;4.90;;
6223;SDS011;3145;42.726;23.342;2023-06-26T13:28:41;6.53;;;5.35;;
6223;SDS011;3145;42.726;23.342;2023-06-26T13:31:07;6.30;;;5.30;;
6223;SDS011;3145;42.726;23.342;2023-06-26T13:33:34;7.95;;;6.07;;
6223;SDS011;3145;42.726;23.342;2023-06-26T13:36:02;10.15;;;5.85;;
6223;SDS011;3145;42.726;23.342;2023-06-26T13:38:32;9.63;;;5.82;;
6223;SDS011;3145;42.726;23.342;2023-06-26T13:40:59;6.00;;;5.40;;
6223;SDS011;3145;42.726;23.342;2023-06-26T13:43:26;9.30;;;6.65;;
6223;SDS011;3145;42.726;23.342;2023-06-26T13:45:54;6.13;;;5.63;;
6223;SDS011;3145;42.726;23.342;2023-06-26T13:48:21;7.55;;;6.75;;
6223;SDS011;3145;42.726;23.342;2023-06-26T13:50:49;7.22;;;6.53;;
6223;SDS011;3145;42.726;23.342;2023-06-26T13:53:18;10.52;;;7.28;;
6223;SDS011;3145;42.726;23.342;2023-06-26T13:55:44;9.05;;;7.93;;
6223;SDS011;3145;42.726;23.342;2023-06-26T13:58:11;7.95;;;7.10;;
6223;SDS011;3145;42.726;23.342;2023-06-26T14:00:38;8.10;;;5.70;;
6223;SDS011;3145;42.726;23.342;2023-06-26T14:03:06;6.47;;;5.80;;
6223;SDS011;3145;42.726;23.342;2023-06-26T14:05:34;8.10;;;5.32;;
6223;SDS011;3145;42.726;23.342;2023-06-26T14:08:01;7.72;;;5.68;;
6223;SDS011;3145;42.726;23.342;2023-06-26T14:10:31;6.60;;;6.10;;
6223;SDS011;3145;42.726;23.342;2023-06-26T14:12:59;7.35;;;6.60;;
6223;SDS011;3145;42.726;23.342;2023-06-26T14:15:26;7.00;;;6.40;;
6223;SDS011;3145;42.726;23.342;2023-06-26T14:17:53;6.88;;;6.38;;
6223;SDS011;3145;42.726;23.342;2023-06-26T14:20:21;6.65;;;6.07;;
6223;SDS011;3145;42.726;23.342;2023-06-26T14:22:48;7.82;;;6.82;;
6223;SDS011;3145;42.726;23.342;2023-06-26T14:25:15;11.52;;;7.57;;
6223;SDS011;3145;42.726;23.342;2023-06-26T14:27:44;16.77;;;7.18;;
6223;SDS011;3145;42.726;23.342;2023-06-26T14:30:11;7.18;;;6.47;;
6223;SDS011;3145;42.726;23.342;2023-06-26T14:32:38;8.70;;;7.63;;
6223;SDS011;3145;42.726;23.342;2023-06-26T14:35:05;11.25;;;7.85;;
6223;SDS011;3145;42.726;23.342;2023-06-26T14:37:32;7.97;;;7.30;;
6223;SDS011;3145;42.726;23.342;2023-06-26T14:39:58;14.13;;;8.10;;
6223;SDS011;3145;42.726;23.342;2023-06-26T14:42:25;9.00;;;8.13;;
6223;SDS011;3145;42.726;23.342;2023-06-26T14:44:53;7.80;;;7.20;;
6223;SDS011;3145;42.726;23.342;2023-06-26T14:47:20;7.55;;;6.85;;
6223;SDS011;3145;42.726;23.342;2023-06-26T14:49:46;7.80;;;6.82;;
6223;SDS011;3145;42.726;23.342;2023-06-26T14:52:13;11.73;;;10.50;;
6223;SDS011;3145;42.726;23.342;2023-06-26T14:54:39;8.82;;;8.02;;
6223;SDS011;3145;42.726;23.342;2023-06-26T14:57:06;7.68;;;6.05;;
6223;SDS011;3145;42.726;23.342;2023-06-26T14:59:33;5.53;;;5.07;;
6223;SDS011;3145;42.726;23.342;2023-06-26T15:02:01;4.80;;;4.30;;
6223;SDS011;3145;42.726;23.342;2023-06-26T15:04:28;5.13;;;4.63;;
6223;SDS011;3145;42.726;23.342;2023-06-26T15:06:56;5.53;;;5.03;;
6223;SDS011;3145;42.726;23.342;2023-06-26T15:09:23;5.60;;;5.10;;
6223;SDS011;3145;42.726;23.342;2023-06-26T15:11:50;5.93;;;5.32;;